Time;durP1;ratioP1;P1;durP2;ratioP2;P2;SDS_P1;SDS_P2;PMS_P1;PMS_P2;Temp;Humidity;BMP_temperature;BMP_pressure;BME280_temperature;BME280_humidity;BME280_pressure;Samples;Min_cycle;Max_cycle;Signal;HPM_P1;HPM_P2
2023/01/02 00:00:52;;;;;;;9.77;2.90;;;;;;;11.33;67.34;101092.31;2114984;28;20027;-66
2023/01/02 00:01:54;;;;;;;8.90;3.22;;;;;;;11.32;67.11;101088.00;2098138;28;20037;-66
2023/01/02 00:02:57;;;;;;;11.00;3.30;;;;;;;11.33;67.42;101086.91;2081513;28;20045;-65
2023/01/02 00:04:02;;;;;;;9.88;3.35;;;;;;;11.33;67.16;101091.50;2098945;28;20063;-66
2023/01/02 00:05:06;;;;;;;8.27;3.08;;;;;;;11.32;67.16;101096.09;2106223;28;20032;-65
2023/01/02 00:06:08;;;;;;;8.60;2.80;;;;;;;11.31;67.53;101085.56;2090079;28;20028;-65
2023/01/02 00:07:11;;;;;;;10.52;3.30;;;;;;;11.31;67.59;101089.06;2090704;28;20037;-66
2023/01/02 00:08:18;;;;;;;8.60;3.08;;;;;;;11.31;67.21;101082.88;2106598;28;20044;-66
2023/01/02 00:09:21;;;;;;;18.48;3.92;;;;;;;11.30;67.55;101084.78;2106866;28;20055;-66
2023/01/02 00:10:23;;;;;;;11.25;3.38;;;;;;;11.30;67.38;101081.28;2098138;28;20043;-66
2023/01/02 00:11:26;;;;;;;7.70;3.40;;;;;;;11.32;67.40;101089.91;2090146;28;20033;-66
2023/01/02 00:12:31;;;;;;;10.73;3.38;;;;;;;11.32;67.43;101089.91;2098511;28;20043;-66
2023/01/02 00:13:34;;;;;;;9.82;3.67;;;;;;;11.33;67.41;101080.75;2106987;28;20483;-65
2023/01/02 00:14:39;;;;;;;7.60;3.47;;;;;;;11.33;67.44;101089.63;2114882;28;20502;-66
2023/01/02 00:15:49;;;;;;;8.02;2.75;;;;;;;11.32;67.50;101090.69;2115510;28;20047;-66
2023/01/02 00:16:52;;;;;;;8.20;3.17;;;;;;;11.31;67.64;101081.00;2114505;28;20027;-66
2023/01/02 00:17:54;;;;;;;9.38;3.50;;;;;;;11.31;67.47;101091.75;2105362;28;20028;-65
2023/01/02 00:18:57;;;;;;;10.75;3.38;;;;;;;11.29;67.70;101080.47;2106333;28;20031;-66
2023/01/02 00:19:59;;;;;;;8.75;3.75;;;;;;;11.29;67.64;101080.47;2106408;28;20039;-65
2023/01/02 00:21:07;;;;;;;11.85;4.18;;;;;;;11.29;67.81;101091.25;2098083;28;20028;-66
2023/01/02 00:22:09;;;;;;;9.82;3.63;;;;;;;11.28;67.45;101089.59;2098822;28;20397;-65
2023/01/02 00:23:12;;;;;;;10.23;3.60;;;;;;;11.26;67.80;101083.69;2098015;28;20040;-66
2023/01/02 00:24:14;;;;;;;10.55;3.50;;;;;;;11.24;67.44;101085.84;2098053;28;20463;-66
2023/01/02 00:25:19;;;;;;;9.98;3.42;;;;;;;11.23;67.66;101086.94;2089961;28;20059;-66
2023/01/02 00:26:23;;;;;;;9.65;3.75;;;;;;;11.21;67.98;101083.69;2098489;28;20520;-66
2023/01/02 00:27:29;;;;;;;11.10;3.42;;;;;;;11.22;68.18;101085.31;2099280;28;20127;-65
2023/01/02 00:28:32;;;;;;;8.23;3.88;;;;;;;11.14;68.04;101092.03;2114834;28;20039;-66
2023/01/02 00:29:34;;;;;;;6.88;3.33;;;;;;;11.12;67.94;101085.31;2097822;28;20040;-65
2023/01/02 00:30:37;;;;;;;12.43;3.85;;;;;;;11.10;68.16;101087.47;2098291;28;20040;-66
2023/01/02 00:31:40;;;;;;;9.50;3.30;;;;;;;11.10;68.48;101088.28;2098100;28;20041;-66
2023/01/02 00:32:42;;;;;;;9.93;3.90;;;;;;;11.07;68.30;101086.13;2098361;28;20032;-65
2023/01/02 00:33:47;;;;;;;10.15;3.40;;;;;;;11.08;68.72;101084.25;2089709;28;20041;-66
2023/01/02 00:34:54;;;;;;;13.82;3.50;;;;;;;11.07;68.52;101088.81;2092408;28;20063;-65
2023/01/02 00:35:57;;;;;;;8.95;3.67;;;;;;;11.05;68.61;101082.09;2089721;28;20057;-66
2023/01/02 00:36:59;;;;;;;5.63;3.13;;;;;;;10.99;68.63;101078.56;2073707;28;20449;-65
2023/01/02 00:38:04;;;;;;;8.13;3.38;;;;;;;10.93;68.83;101087.72;2090185;28;20036;-65
2023/01/02 00:39:09;;;;;;;8.60;3.38;;;;;;;10.94;69.11;101086.66;2107409;28;20715;-65
2023/01/02 00:40:12;;;;;;;8.93;3.10;;;;;;;10.96;69.23;101075.63;2098315;28;20035;-65
2023/01/02 00:41:14;;;;;;;14.95;3.63;;;;;;;10.97;69.26;101077.22;2098017;28;20040;-65
2023/01/02 00:42:15;;;;;;;8.25;2.88;;;;;;;10.94;69.11;101075.06;2089501;28;20048;-65
2023/01/02 00:43:18;;;;;;;9.15;3.50;;;;;;;10.84;68.76;101081.25;2097920;28;20531;-65
2023/01/02 00:44:22;;;;;;;11.63;3.53;;;;;;;10.78;68.85;101083.16;2114544;28;20050;-66
2023/01/02 00:45:25;;;;;;;8.77;3.30;;;;;;;10.74;69.54;101079.34;2114657;28;20050;-65
2023/01/02 00:46:28;;;;;;;11.93;3.53;;;;;;;10.75;69.41;101072.91;2097815;28;20047;-65
2023/01/02 00:47:31;;;;;;;9.43;3.60;;;;;;;10.73;69.65;101072.38;2105773;28;20079;-65
2023/01/02 00:48:36;;;;;;;7.30;3.28;;;;;;;10.75;70.15;101075.63;2097914;28;20032;-65
2023/01/02 00:49:38;;;;;;;10.05;3.53;;;;;;;10.77;69.88;101084.19;2090679;28;20037;-66
2023/01/02 00:50:43;;;;;;;10.50;3.47;;;;;;;10.78;70.38;101080.47;2089385;28;20416;-66
2023/01/02 00:51:45;;;;;;;10.73;3.30;;;;;;;10.80;69.92;101078.28;2098447;28;20047;-65
2023/01/02 00:52:48;;;;;;;11.25;3.97;;;;;;;10.80;69.84;101078.28;2097683;28;20032;-65
2023/01/02 00:53:54;;;;;;;10.68;3.35;;;;;;;10.81;69.91;101077.22;2090856;28;20040;-65
2023/01/02 00:54:56;;;;;;;13.65;3.30;;;;;;;10.81;70.26;101079.94;2098457;28;20578;-65
2023/01/02 00:56:00;;;;;;;12.32;3.40;;;;;;;10.80;70.10;101077.50;2106327;28;20043;-65
2023/01/02 00:57:02;;;;;;;10.00;3.22;;;;;;;10.70;70.00;101072.91;2097622;28;20036;-65
2023/01/02 00:58:05;;;;;;;6.70;2.88;;;;;;;10.67;69.76;101070.75;2089829;28;20601;-65
2023/01/02 00:59:09;;;;;;;7.53;3.33;;;;;;;10.66;69.78;101077.22;2089979;28;20055;-65
2023/01/02 01:00:13;;;;;;;12.48;3.42;;;;;;;10.62;70.54;101082.31;2098013;28;20044;-65
2023/01/02 01:01:18;;;;;;;13.23;3.90;;;;;;;10.65;70.31;101080.94;2113927;28;20399;-65
2023/01/02 01:02:22;;;;;;;10.40;2.97;;;;;;;10.67;70.42;101074.22;2105918;28;20657;-65
2023/01/02 01:03:23;;;;;;;9.13;2.65;;;;;;;10.70;70.52;101072.91;2081612;28;20048;-65
2023/01/02 01:04:25;;;;;;;8.27;3.30;;;;;;;10.71;70.67;101069.13;2081138;28;20501;-65
2023/01/02 01:05:29;;;;;;;7.75;3.55;;;;;;;10.69;70.50;101071.28;2097831;28;20416;-66
2023/01/02 01:06:35;;;;;;;6.15;2.85;;;;;;;10.70;70.05;101072.09;2097657;28;20079;-66
2023/01/02 01:07:38;;;;;;;5.80;2.97;;;;;;;10.71;70.51;101068.31;2099207;28;20480;-65
2023/01/02 01:08:42;;;;;;;7.43;2.90;;;;;;;10.70;70.24;101067.53;2089530;28;20515;-65
2023/01/02 01:09:44;;;;;;;11.32;3.22;;;;;;;10.71;70.25;101074.50;2090019;28;20029;-65
2023/01/02 01:10:46;;;;;;;9.13;3.17;;;;;;;10.73;70.13;101074.25;2089680;28;20535;-65
2023/01/02 01:11:48;;;;;;;7.47;3.30;;;;;;;10.75;70.26;101085.53;2097731;28;20036;-65
2023/01/02 01:12:50;;;;;;;6.50;2.90;;;;;;;10.77;70.33;101081.50;2097872;28;20427;-65
2023/01/02 01:13:53;;;;;;;9.80;3.00;;;;;;;10.78;70.44;101080.47;2089308;28;20499;-65
2023/01/02 01:14:55;;;;;;;6.50;2.70;;;;;;;10.79;70.19;101076.69;2089925;28;20495;-65
2023/01/02 01:16:22;;;;;;;9.18;3.35;;;;;;;10.81;70.08;101076.41;2098070;28;20029;-65
2023/01/02 01:17:24;;;;;;;10.43;3.00;;;;;;;10.84;70.54;101065.09;2090092;28;20542;-65
2023/01/02 01:18:26;;;;;;;9.27;2.97;;;;;;;10.85;70.32;101074.81;2089638;28;20451;-65
2023/01/02 01:19:49;;;;;;;12.98;3.08;;;;;;;10.87;69.97;101068.06;2097886;28;20044;-65
2023/01/02 01:20:54;;;;;;;11.75;3.10;;;;;;;10.89;70.45;101065.94;2107371;28;20032;-65
2023/01/02 01:21:58;;;;;;;6.90;2.70;;;;;;;10.90;70.03;101072.09;2105850;28;20036;-66
2023/01/02 01:23:00;;;;;;;9.80;2.80;;;;;;;10.89;69.83;101070.50;2105975;28;20034;-66
2023/01/02 01:24:03;;;;;;;6.47;2.85;;;;;;;10.87;69.89;101068.06;2114310;28;20054;-66
2023/01/02 01:25:07;;;;;;;5.20;2.60;;;;;;;10.87;70.13;101068.06;2105983;28;20031;-66
2023/01/02 01:26:11;;;;;;;9.23;2.92;;;;;;;10.82;69.66;101064.59;2089849;28;20040;-66
2023/01/02 01:27:16;;;;;;;11.85;3.63;;;;;;;10.79;70.16;101065.94;2090759;28;20430;-65
2023/01/02 01:28:20;;;;;;;9.93;3.55;;;;;;;10.81;69.82;101069.16;2097688;28;20040;-66
2023/01/02 01:29:23;;;;;;;6.55;3.00;;;;;;;10.83;70.20;101064.31;2106433;28;20446;-66
2023/01/02 01:30:26;;;;;;;5.60;2.80;;;;;;;10.84;69.85;101060.53;2106024;28;20082;-66
2023/01/02 01:31:31;;;;;;;9.25;2.42;;;;;;;10.85;70.02;101064.06;2097870;28;20504;-66
2023/01/02 01:32:33;;;;;;;6.22;2.70;;;;;;;10.88;70.05;101063.53;2098392;28;20047;-66
2023/01/02 01:33:35;;;;;;;8.90;2.72;;;;;;;10.89;70.25;101059.75;2097509;28;20393;-66
2023/01/02 01:34:40;;;;;;;8.15;3.00;;;;;;;10.89;69.86;101047.09;2090579;28;20107;-65
2023/01/02 01:35:46;;;;;;;8.07;2.97;;;;;;;10.92;69.97;101047.66;2106429;28;20044;-66
2023/01/02 01:36:48;;;;;;;7.95;2.65;;;;;;;10.93;70.19;101044.66;2105712;28;20036;-66
2023/01/02 01:37:53;;;;;;;8.07;3.03;;;;;;;10.93;69.82;101054.63;2097787;28;20028;-66
2023/01/02 01:38:55;;;;;;;9.57;3.25;;;;;;;10.93;69.94;101050.06;2097914;28;20031;-66
2023/01/02 01:39:58;;;;;;;6.88;2.40;;;;;;;10.96;70.15;101043.34;2097600;28;20508;-66
2023/01/02 01:41:01;;;;;;;7.20;2.85;;;;;;;10.97;69.92;101048.47;2097492;28;20032;-66
2023/01/02 01:42:03;;;;;;;6.03;2.58;;;;;;;10.99;69.87;101048.97;2097495;28;20122;-66
2023/01/02 01:43:12;;;;;;;11.43;3.05;;;;;;;11.01;69.63;101043.34;2089179;28;20029;-66
2023/01/02 01:44:40;;;;;;;9.77;2.75;;;;;;;11.00;69.66;101055.16;2106653;28;20067;-65
2023/01/02 01:45:43;;;;;;;8.32;2.60;;;;;;;11.02;69.85;101053.03;2105621;28;20036;-66
2023/01/02 01:46:47;;;;;;;10.60;2.85;;;;;;;11.01;69.48;101051.41;2089330;28;20036;-65
2023/01/02 01:47:53;;;;;;;9.32;2.85;;;;;;;11.01;69.50;101046.84;2089424;28;20041;-65
2023/01/02 01:49:25;;;;;;;7.00;2.88;;;;;;;11.04;69.84;101056.25;2090707;28;20040;-66
2023/01/02 01:50:33;;;;;;;5.03;2.38;;;;;;;11.02;69.52;101055.72;2105452;28;20055;-66
2023/01/02 01:51:40;;;;;;;5.65;2.45;;;;;;;11.04;69.42;101058.94;2106632;28;20052;-66
2023/01/02 01:53:14;;;;;;;6.55;2.28;;;;;;;11.06;69.69;101065.66;2098470;28;20043;-66
2023/01/02 01:54:18;;;;;;;7.35;2.88;;;;;;;11.06;69.32;101067.53;2098175;28;20476;-66
2023/01/02 01:55:24;;;;;;;6.43;2.80;;;;;;;11.07;69.19;101064.59;2081634;28;20041;-66
2023/01/02 01:56:27;;;;;;;7.78;2.90;;;;;;;11.09;69.37;101065.13;2091301;28;20120;-66
2023/01/02 01:57:35;;;;;;;6.45;2.92;;;;;;;11.09;69.08;101059.75;2097535;28;20562;-66
2023/01/02 01:58:41;;;;;;;8.70;3.90;;;;;;;11.10;69.04;101060.56;2098354;28;20516;-66
2023/01/02 01:59:44;;;;;;;6.20;2.70;;;;;;;11.10;69.37;101057.88;2090538;28;20052;-65
2023/01/02 02:00:50;;;;;;;5.63;2.70;;;;;;;11.11;69.24;101056.78;2098252;28;20044;-66
2023/01/02 02:01:52;;;;;;;8.35;2.90;;;;;;;11.12;68.93;101064.56;2106239;28;20515;-65
2023/01/02 02:03:01;;;;;;;6.47;2.67;;;;;;;11.14;69.05;101058.94;2106057;28;20357;-66
2023/01/02 02:04:04;;;;;;;7.82;2.88;;;;;;;11.14;68.82;101054.38;2106661;28;20533;-65
2023/01/02 02:05:13;;;;;;;6.65;2.92;;;;;;;11.14;68.92;101050.88;2098103;28;20052;-65
2023/01/02 02:06:20;;;;;;;7.20;2.60;;;;;;;11.14;69.26;101050.88;2098384;28;20051;-66
2023/01/02 02:07:22;;;;;;;8.73;2.70;;;;;;;11.14;69.11;101046.28;2099179;28;20048;-65
2023/01/02 02:08:50;;;;;;;10.60;3.05;;;;;;;11.13;68.85;101043.88;2097286;28;20041;-66
2023/01/02 02:10:09;;;;;;;6.18;2.55;;;;;;;11.12;68.75;101042.25;2092977;28;20048;-66
2023/01/02 02:11:13;;;;;;;7.15;2.55;;;;;;;11.10;69.17;101039.84;2102479;28;20045;-65
2023/01/02 02:12:18;;;;;;;10.13;2.90;;;;;;;11.10;69.09;101039.84;2105309;28;20048;-66
2023/01/02 02:13:23;;;;;;;6.47;2.40;;;;;;;11.11;69.13;101040.66;2106480;28;20523;-66
2023/01/02 02:14:31;;;;;;;7.97;2.30;;;;;;;11.12;68.68;101047.63;2105562;28;20528;-65
2023/01/02 02:15:52;;;;;;;7.32;2.78;;;;;;;11.12;68.94;101036.88;2082135;28;20521;-66
2023/01/02 02:17:31;;;;;;;5.88;2.53;;;;;;;11.14;69.32;101040.91;2097416;28;20414;-66
2023/01/02 02:19:00;;;;;;;5.75;2.47;;;;;;;11.16;69.09;101047.91;2093062;28;20055;-66
2023/01/02 02:20:04;;;;;;;7.20;3.08;;;;;;;11.14;69.02;101057.06;2105324;28;20031;-65
2023/01/02 02:21:31;;;;;;;6.18;2.55;;;;;;;11.12;69.19;101050.31;2106031;28;20571;-66
2023/01/02 02:22:54;;;;;;;9.07;2.20;;;;;;;11.15;69.10;101047.09;2097022;28;20040;-66
2023/01/02 02:24:05;;;;;;;7.95;2.40;;;;;;;11.16;68.84;101053.28;2097487;28;20853;-66
2023/01/02 02:25:44;;;;;;;4.68;2.08;;;;;;;11.14;68.81;101043.59;2098585;28;20582;-65
2023/01/02 02:27:00;;;;;;;6.18;2.55;;;;;;;11.14;69.05;101048.97;2099304;28;20036;-65
2023/01/02 02:28:29;;;;;;;6.35;2.53;;;;;;;11.12;68.71;101043.06;2093030;28;20044;-65
2023/01/02 02:29:50;;;;;;;6.95;2.33;;;;;;;11.12;69.15;101044.94;2104550;28;20047;-66
2023/01/02 02:31:02;;;;;;;;;;;;;;;11.11;69.13;101040.66;2100209;28;20036;-66
2023/01/02 02:32:17;;;;;;;6.80;2.00;;;;;;;11.11;69.01;101046.81;2100402;28;19913;-66
2023/01/02 02:33:40;;;;;;;8.02;2.63;;;;;;;11.11;68.89;101040.66;2107401;28;20032;-66
2023/01/02 02:34:55;;;;;;;5.88;2.08;;;;;;;11.07;69.01;101044.97;2105457;28;20047;-65
2023/01/02 02:36:28;;;;;;;6.15;2.53;;;;;;;11.02;69.21;101043.06;2090818;28;20033;-66
2023/01/02 02:37:44;;;;;;;5.55;2.40;;;;;;;11.02;69.09;101042.25;2097575;28;20035;-66
2023/01/02 02:39:22;;;;;;;7.50;2.45;;;;;;;11.03;69.19;101041.97;2093253;28;20044;-66
2023/01/02 02:40:42;;;;;;;6.93;2.65;;;;;;;11.01;68.92;101033.38;2073810;28;20033;-66
2023/01/02 02:42:09;;;;;;;7.20;2.30;;;;;;;11.01;68.99;101040.66;2074848;28;20037;-66
2023/01/02 02:43:21;;;;;;;6.50;2.28;;;;;;;10.99;69.39;101037.41;2107277;28;20048;-66
2023/01/02 02:44:37;;;;;;;7.93;2.20;;;;;;;10.99;69.46;101037.41;2105351;28;20044;-66
2023/01/02 02:46:06;;;;;;;5.50;2.50;;;;;;;10.99;69.33;101026.66;2107917;28;20051;-66
2023/01/02 02:47:14;;;;;;;7.20;2.25;;;;;;;11.01;69.57;101032.59;2111927;28;20051;-66
2023/01/02 02:48:37;;;;;;;9.30;2.40;;;;;;;11.01;69.32;101030.69;2106664;28;20028;-66
2023/01/02 02:50:01;;;;;;;6.03;2.13;;;;;;;11.01;69.21;101030.69;2105503;28;20040;-66
2023/01/02 02:51:02;;;;;;;7.05;1.95;;;;;;;11.02;69.25;101026.13;2086932;28;20056;-66
2023/01/02 02:52:19;;;;;;;7.95;2.20;;;;;;;11.02;69.60;101026.13;2088484;28;20424;-66
2023/01/02 02:53:48;;;;;;;5.85;2.65;;;;;;;11.03;69.17;101025.84;2107885;28;20032;-66
2023/01/02 02:54:56;;;;;;;;;;;;;;;11.04;69.35;101021.28;2110011;28;20031;-66
2023/01/02 02:56:04;;;;;;;4.28;2.00;;;;;;;11.04;69.28;101024.78;2106278;28;19912;-66
2023/01/02 02:57:08;;;;;;;6.00;2.00;;;;;;;11.05;69.58;101021.00;2106243;28;20028;-66
2023/01/02 02:58:13;;;;;;;7.10;2.05;;;;;;;11.05;69.45;101015.63;2105746;28;20028;-66
2023/01/02 02:59:16;;;;;;;4.70;2.00;;;;;;;11.04;69.23;101021.28;2106105;28;20044;-66
2023/01/02 03:00:21;;;;;;;5.38;2.20;;;;;;;11.04;69.52;101018.59;2105818;28;20044;-66
2023/01/02 03:01:26;;;;;;;8.43;2.00;;;;;;;11.05;69.42;101020.19;2099266;28;20115;-66
2023/01/02 03:02:29;;;;;;;3.55;1.98;;;;;;;11.07;69.41;101007.28;2090868;28;20037;-66
2023/01/02 03:03:31;;;;;;;5.88;2.65;;;;;;;11.09;69.24;101013.19;2099204;27;20044;-65
2023/01/02 03:04:37;;;;;;;7.60;2.20;;;;;;;11.06;69.44;101011.03;2106693;28;20063;-66
2023/01/02 03:05:42;;;;;;;7.60;2.28;;;;;;;10.98;69.09;101015.09;2099689;28;20037;-66
2023/01/02 03:07:16;;;;;;;7.78;2.20;;;;;;;10.92;69.29;101009.97;2107487;28;20428;-66
2023/01/02 03:09:00;;;;;;;7.53;2.10;;;;;;;10.83;69.79;101013.19;2086046;28;20076;-65
2023/01/02 03:10:22;;;;;;;7.32;1.95;;;;;;;10.76;69.78;101011.88;2095892;28;20412;-66
2023/01/02 03:11:40;;;;;;;6.13;2.33;;;;;;;10.74;69.92;101009.44;2115544;28;20037;-66
2023/01/02 03:12:42;;;;;;;5.22;2.13;;;;;;;10.70;70.24;101002.19;2109395;28;20040;-66
2023/01/02 03:14:00;;;;;;;4.25;2.03;;;;;;;10.62;70.56;101011.56;2115368;28;20043;-66
2023/01/02 03:15:28;;;;;;;7.88;1.90;;;;;;;10.55;70.80;101001.06;2108978;28;20523;-66
2023/01/02 03:16:36;;;;;;;4.45;1.70;;;;;;;10.57;70.98;101004.31;2102211;28;20040;-66
2023/01/02 03:17:43;;;;;;;7.30;2.00;;;;;;;10.61;71.11;101005.38;2084195;28;20048;-66
2023/01/02 03:19:13;;;;;;;4.97;1.77;;;;;;;10.61;71.11;100999.19;2092562;28;20405;-66
2023/01/02 03:20:18;;;;;;;2.85;1.55;;;;;;;10.61;71.15;101001.91;2102646;28;20036;-66
2023/01/02 03:21:31;;;;;;;8.50;2.70;;;;;;;10.64;71.06;101001.34;2082800;28;20505;-66
2023/01/02 03:22:39;;;;;;;5.07;2.00;;;;;;;10.67;71.20;101004.31;2095262;28;20037;-66
2023/01/02 03:23:48;;;;;;;6.90;2.03;;;;;;;10.69;71.38;101001.38;2098506;28;20040;-66
2023/01/02 03:24:54;;;;;;;7.70;2.00;;;;;;;10.73;71.59;100999.75;2085883;28;20033;-66
2023/01/02 03:25:58;;;;;;;6.90;2.20;;;;;;;10.75;70.94;100999.47;2100029;28;20033;-66
2023/01/02 03:27:25;;;;;;;6.05;2.00;;;;;;;10.79;71.63;100997.88;2098602;28;20041;-66
2023/01/02 03:28:29;;;;;;;3.15;1.80;;;;;;;10.82;71.51;100990.06;2096932;28;20444;-66
2023/01/02 03:29:42;;;;;;;8.95;2.20;;;;;;;10.86;71.54;100995.72;2098990;28;20032;-66
2023/01/02 03:30:49;;;;;;;5.47;2.10;;;;;;;10.86;71.25;101001.09;2100296;28;20399;-66
2023/01/02 03:31:55;;;;;;;4.22;1.83;;;;;;;10.89;71.32;100993.28;2092309;28;20389;-65
2023/01/02 03:33:05;;;;;;;3.95;1.95;;;;;;;10.92;71.24;100993.84;2091111;28;20060;-66
2023/01/02 03:34:11;;;;;;;3.92;1.75;;;;;;;10.92;70.91;100994.63;2092299;28;20052;-66
2023/01/02 03:35:18;;;;;;;5.90;1.70;;;;;;;10.93;71.19;100984.69;2100033;28;20040;-66
2023/01/02 03:36:26;;;;;;;4.72;1.80;;;;;;;10.95;71.19;100994.09;2107874;28;20047;-66
2023/01/02 03:37:32;;;;;;;5.72;2.15;;;;;;;10.97;71.22;100988.44;2107353;28;20051;-66
2023/01/02 03:38:40;;;;;;;4.82;1.50;;;;;;;10.98;70.79;100990.06;2107606;28;20043;-66
2023/01/02 03:39:50;;;;;;;8.27;2.42;;;;;;;10.96;71.02;100989.53;2107497;28;20043;-66
2023/01/02 03:41:31;;;;;;;7.32;2.00;;;;;;;10.98;71.33;100988.19;2108381;28;20472;-66
2023/01/02 03:42:43;;;;;;;4.78;1.90;;;;;;;11.00;70.92;100982.50;2089675;28;20041;-66
2023/01/02 03:43:51;;;;;;;4.25;1.80;;;;;;;11.00;71.00;100972.59;2073568;28;20046;-66
2023/01/02 03:45:25;;;;;;;5.75;1.95;;;;;;;11.02;71.12;100978.47;2074273;28;20065;-66
2023/01/02 03:46:55;;;;;;;4.70;1.88;;;;;;;11.02;70.99;100978.47;2095917;28;20043;-65
2023/01/02 03:48:14;;;;;;;8.27;1.88;;;;;;;11.04;71.15;100975.53;2110472;28;20441;-66
2023/01/02 03:49:26;;;;;;;13.13;2.00;;;;;;;11.03;70.99;100968.53;2100846;28;20044;-66
2023/01/02 03:50:40;;;;;;;7.40;1.98;;;;;;;11.04;71.04;100970.16;2101382;28;20294;-66
2023/01/02 03:51:42;;;;;;;8.82;2.10;;;;;;;11.03;70.84;100972.00;2108471;28;20051;-66
2023/01/02 03:52:44;;;;;;;9.20;2.22;;;;;;;11.04;70.99;100968.25;2106897;28;20040;-66
2023/01/02 03:53:49;;;;;;;5.72;2.17;;;;;;;11.07;71.06;100969.63;2115125;28;20039;-66
2023/01/02 03:54:54;;;;;;;6.03;2.03;;;;;;;11.07;71.20;100970.41;2114962;28;20035;-66
2023/01/02 03:56:22;;;;;;;3.92;1.90;;;;;;;11.10;71.32;100969.06;2106666;28;20403;-66
2023/01/02 03:57:46;;;;;;;5.93;1.60;;;;;;;11.14;71.07;100967.44;2105309;28;20072;-66
2023/01/02 03:58:54;;;;;;;8.15;1.88;;;;;;;11.14;71.31;100968.25;2109826;28;20039;-66
2023/01/02 04:00:07;;;;;;;4.90;1.85;;;;;;;11.17;71.26;100966.91;2106672;28;20454;-66
2023/01/02 04:01:25;;;;;;;3.80;1.58;;;;;;;11.18;70.78;100965.81;2103005;28;20048;-66
2023/01/02 04:02:58;;;;;;;8.55;2.60;;;;;;;11.17;71.02;100966.91;2107594;28;20047;-66
2023/01/02 04:04:20;;;;;;;5.70;2.40;;;;;;;11.16;71.59;100951.84;2102464;28;20063;-66
2023/01/02 04:05:43;;;;;;;7.40;2.00;;;;;;;11.19;71.57;100967.44;2104280;28;20036;-66
2023/01/02 04:06:54;;;;;;;6.20;2.03;;;;;;;11.18;71.53;100954.25;2109536;28;20046;-66
2023/01/02 04:08:04;;;;;;;5.35;1.90;;;;;;;11.15;71.92;100963.66;2108026;28;20054;-66
2023/01/02 04:09:29;;;;;;;5.80;2.00;;;;;;;11.15;71.73;100960.97;2107579;28;20031;-66
2023/01/02 04:10:37;;;;;;;5.70;1.92;;;;;;;11.14;71.98;100965.56;2108978;28;20054;-65
2023/01/02 04:11:43;;;;;;;11.07;1.85;;;;;;;11.14;71.75;100959.38;2106324;28;20071;-66
2023/01/02 04:12:51;;;;;;;5.03;1.80;;;;;;;11.12;72.40;100959.63;2098823;28;20039;-65
2023/01/02 04:13:59;;;;;;;4.13;1.70;;;;;;;11.12;72.44;100956.13;2100150;28;20514;-65
2023/01/02 04:15:06;;;;;;;8.65;1.95;;;;;;;11.11;72.69;100949.16;2107406;28;20035;-66
2023/01/02 04:16:13;;;;;;;7.88;2.10;;;;;;;11.09;72.54;100952.09;2098718;28;20051;-66
2023/01/02 04:17:21;;;;;;;6.72;1.85;;;;;;;11.09;72.86;100949.41;2107555;28;20056;-65
2023/01/02 04:18:32;;;;;;;3.08;1.90;;;;;;;11.07;72.91;100942.72;2115033;28;20050;-66
2023/01/02 04:19:44;;;;;;;6.82;2.00;;;;;;;11.02;73.32;100942.69;2114702;28;20039;-65
2023/01/02 04:20:52;;;;;;;6.35;2.13;;;;;;;11.05;73.39;100950.22;2115004;28;20060;-65
2023/01/02 04:21:58;;;;;;;6.97;1.73;;;;;;;11.04;73.16;100944.03;2114735;28;20058;-66
2023/01/02 04:23:06;;;;;;;5.63;1.98;;;;;;;11.02;73.26;100945.41;2090305;28;20045;-66
2023/01/02 04:24:18;;;;;;;5.82;2.55;;;;;;;11.03;73.42;100936.22;2099621;28;20052;-65
2023/01/02 04:25:25;;;;;;;6.07;2.17;;;;;;;11.02;73.55;100935.44;2099559;28;20040;-65
2023/01/02 04:27:00;;;;;;;5.22;1.83;;;;;;;11.02;73.45;100938.13;2091318;28;20404;-65
2023/01/02 04:28:11;;;;;;;5.32;1.73;;;;;;;11.03;73.74;100928.97;2081402;28;20049;-65
2023/01/02 04:29:13;;;;;;;6.63;1.90;;;;;;;11.02;74.04;100931.94;2085690;28;20045;-66
2023/01/02 04:30:18;;;;;;;6.00;2.13;;;;;;;11.04;73.95;100932.47;2098235;28;20044;-66
2023/01/02 04:31:26;;;;;;;3.20;1.98;;;;;;;11.05;73.63;100934.88;2098426;28;20043;-66
2023/01/02 04:32:35;;;;;;;6.75;2.05;;;;;;;10.99;74.09;100940.56;2099746;28;20041;-65
2023/01/02 04:33:48;;;;;;;5.38;2.03;;;;;;;10.96;74.37;100935.72;2114164;28;20052;-65
2023/01/02 04:34:52;;;;;;;2.83;1.50;;;;;;;10.96;74.21;100930.34;2115454;28;20035;-65
2023/01/02 04:36:05;;;;;;;7.32;2.15;;;;;;;10.97;74.24;100938.16;2114347;28;20608;-65
2023/01/02 04:37:07;;;;;;;4.28;1.90;;;;;;;10.96;74.25;100933.03;2099632;28;20040;-66
2023/01/02 04:38:11;;;;;;;5.50;2.10;;;;;;;10.95;74.35;100928.72;2098130;28;20524;-66
2023/01/02 04:39:13;;;;;;;6.43;2.10;;;;;;;10.95;74.43;100923.34;2098181;28;20039;-66
2023/01/02 04:40:21;;;;;;;4.43;1.73;;;;;;;10.96;74.42;100922.25;2106479;28;20043;-66
2023/01/02 04:41:27;;;;;;;11.70;2.08;;;;;;;10.97;74.54;100922.00;2099168;28;20365;-65
2023/01/02 04:42:30;;;;;;;5.43;2.08;;;;;;;10.97;74.48;100921.19;2106853;28;20038;-65
2023/01/02 04:43:34;;;;;;;5.75;2.33;;;;;;;10.95;74.67;100917.97;2114213;28;20063;-65
2023/01/02 04:44:36;;;;;;;11.20;2.65;;;;;;;10.94;74.75;100916.34;2098269;28;20032;-65
2023/01/02 04:45:39;;;;;;;5.28;2.38;;;;;;;10.95;74.75;100912.59;2089834;28;20048;-65
2023/01/02 04:46:44;;;;;;;4.45;2.10;;;;;;;10.94;74.55;100917.16;2098010;28;20404;-65
2023/01/02 04:47:49;;;;;;;9.10;2.33;;;;;;;10.94;74.99;100910.97;2098846;28;20040;-65
2023/01/02 04:48:53;;;;;;;5.50;2.10;;;;;;;10.93;74.52;100915.53;2097509;28;20048;-65
2023/01/02 04:49:59;;;;;;;5.22;2.17;;;;;;;10.93;74.97;100920.91;2098171;28;20053;-65
2023/01/02 04:51:03;;;;;;;6.53;2.10;;;;;;;10.94;74.85;100916.34;2091102;28;20044;-66
2023/01/02 04:52:08;;;;;;;7.35;2.28;;;;;;;10.93;75.17;100915.53;2099230;28;20629;-66
2023/01/02 04:53:12;;;;;;;10.05;2.53;;;;;;;10.93;75.22;100915.53;2106327;28;20035;-66
2023/01/02 04:54:14;;;;;;;8.60;2.28;;;;;;;10.95;75.44;100915.28;2106288;28;20043;-66
2023/01/02 04:55:17;;;;;;;3.85;2.00;;;;;;;10.93;75.12;100914.72;2106308;28;20028;-66
2023/01/02 04:56:20;;;;;;;8.07;2.22;;;;;;;10.91;75.18;100917.72;2097362;28;20044;-67
2023/01/02 04:57:22;;;;;;;10.93;2.63;;;;;;;10.89;75.50;100915.28;2090108;28;20038;-66
2023/01/02 04:58:28;;;;;;;8.23;1.98;;;;;;;10.87;75.33;100912.03;2098629;28;20048;-66
2023/01/02 04:59:30;;;;;;;5.70;2.10;;;;;;;10.85;75.95;100908.84;2098258;28;20048;-66
2023/01/02 05:00:33;;;;;;;9.65;2.47;;;;;;;10.88;75.93;100907.50;2089759;28;20049;-66
2023/01/02 05:01:36;;;;;;;6.38;2.20;;;;;;;10.88;75.61;100902.91;2106153;28;20523;-66
2023/01/02 05:02:39;;;;;;;7.38;2.38;;;;;;;10.91;75.93;100906.94;2113999;28;20556;-66
2023/01/02 05:03:43;;;;;;;8.93;2.38;;;;;;;10.92;75.57;100897.00;2106300;28;20059;-65
2023/01/02 05:04:45;;;;;;;6.38;2.13;;;;;;;10.94;75.77;100901.03;2098192;28;20040;-66
2023/01/02 05:05:49;;;;;;;5.95;1.95;;;;;;;10.96;75.99;100903.44;2097628;28;20033;-65
2023/01/02 05:06:54;;;;;;;5.90;2.22;;;;;;;10.94;75.58;100900.19;2098567;28;20039;-66
2023/01/02 05:08:18;;;;;;;6.63;2.25;;;;;;;10.94;76.00;100894.81;2089632;28;20100;-65
2023/01/02 05:09:20;;;;;;;4.45;2.10;;;;;;;10.93;75.64;100890.53;2103261;28;20046;-65
2023/01/02 05:10:23;;;;;;;4.97;1.92;;;;;;;10.89;75.81;100891.06;2105599;28;20047;-66
2023/01/02 05:11:29;;;;;;;6.50;2.03;;;;;;;10.88;75.98;100883.28;2106699;28;20047;-65
2023/01/02 05:12:36;;;;;;;4.30;1.92;;;;;;;10.83;76.42;100884.09;2114546;28;20040;-65
2023/01/02 05:13:38;;;;;;;8.80;2.45;;;;;;;10.79;76.28;100883.03;2114393;28;20039;-66
2023/01/02 05:14:40;;;;;;;5.03;1.80;;;;;;;10.78;76.46;100886.81;2097776;28;20036;-66
2023/01/02 05:15:44;;;;;;;6.72;2.13;;;;;;;10.79;76.50;100882.22;2097755;28;20048;-66
2023/01/02 05:16:46;;;;;;;6.22;2.30;;;;;;;10.80;76.88;100879.25;2097757;28;20048;-66
2023/01/02 05:17:55;;;;;;;6.07;2.00;;;;;;;10.79;76.73;100874.94;2098777;28;20041;-65
2023/01/02 05:18:58;;;;;;;5.32;2.17;;;;;;;10.79;76.92;100872.25;2114576;28;20391;-66
2023/01/02 05:20:02;;;;;;;7.68;2.70;;;;;;;10.80;77.01;100867.69;2114373;28;20032;-65